createdAt,value
2019-01-19T00:00:38.056Z,60020.45
2019-01-19T00:03:45.599Z,60019.39
2019-01-19T00:06:51.325Z,60022.73
2019-01-19T00:09:57.064Z,60020.25
2019-01-19T00:13:02.800Z,60025.77
2019-01-19T00:21:51.204Z,60032.03
2019-01-19T00:24:56.947Z,60032.03
2019-01-19T00:34:17.040Z,60035.72
2019-01-19T00:37:24.575Z,60035.54
2019-01-19T00:43:17.316Z,60043.32
2019-01-19T00:49:17.363Z,60045.97
2019-01-19T00:52:23.105Z,60030.76
2019-01-19T00:55:28.839Z,60036.63
2019-01-19T01:01:48.056Z,60037.57
2019-01-19T01:04:55.599Z,60026.07
2019-01-19T01:08:01.333Z,60035.14
2019-01-19T01:17:08.244Z,60022.63
2019-01-19T01:20:13.979Z,60009.72
2019-01-19T01:23:19.721Z,60005.49
2019-01-19T01:26:25.446Z,60009.92
2019-01-19T01:29:31.186Z,60007.77
2019-01-19T01:32:38.733Z,60008.15
2019-01-19T01:35:44.394Z,59998.30
2019-01-19T01:38:51.939Z,59992.13
2019-01-19T01:44:53.592Z,59990.73
2019-01-19T01:47:59.333Z,60000.71
2019-01-19T01:51:05.072Z,60017.29
2019-01-19T01:54:10.796Z,60013.21
2019-01-19T01:56:36.931Z,60019.41
2019-01-19T01:59:42.671Z,60008.83
2019-01-19T02:05:49.568Z,60000.20
2019-01-19T02:08:57.121Z,59990.71
2019-01-19T02:33:10.304Z,60001.80
2019-01-19T02:36:17.847Z,60005.70
2019-01-19T02:45:24.322Z,60018.75
2019-01-19T02:48:30.056Z,60015.36
2019-01-19T02:54:36.808Z,60059.53
2019-01-19T02:57:42.545Z,60055.27
2019-01-19T03:22:07.747Z,60017.97
2019-01-19T03:28:13.892Z,60006.56
2019-01-19T03:31:19.693Z,60008.28
2019-01-19T03:37:38.697Z,59994.00
2019-01-19T03:40:46.242Z,59991.42
2019-01-19T03:43:52.001Z,59996.88
2019-01-19T03:46:57.733Z,60029.04
2019-01-19T03:50:05.302Z,60012.66
2019-01-19T03:55:53.777Z,60002.64
2019-01-19T04:05:13.217Z,60043.82
2019-01-19T04:17:21.689Z,60044.03
2019-01-19T04:20:27.435Z,60030.63
2019-01-19T04:26:16.332Z,60039.29
2019-01-19T04:31:23.008Z,60053.73
2019-01-19T04:33:49.223Z,60055.60
2019-01-19T04:41:30.844Z,60052.31
2019-01-19T04:43:56.981Z,60077.26
2019-01-19T04:46:23.092Z,60088.69
2019-01-19T04:51:26.704Z,60065.12
2019-01-19T04:53:52.835Z,60052.06
2019-01-19T04:56:19.065Z,60046.10
2019-01-19T04:58:45.192Z,60042.25
2019-01-19T05:01:11.326Z,60035.37
2019-01-19T05:03:37.543Z,60037.50
2019-01-19T05:06:11.685Z,60030.98
2019-01-19T05:08:31.796Z,60032.43
2019-01-19T05:10:57.915Z,60021.47
2019-01-19T05:13:24.025Z,60019.70
2019-01-19T05:15:50.162Z,60017.44
2019-01-19T05:26:11.668Z,60004.25
2019-01-19T05:28:37.789Z,60000.18
2019-01-19T05:31:04.018Z,60002.13
2019-01-19T05:33:30.164Z,60004.05
2019-01-19T05:35:56.290Z,60001.45
2019-01-19T05:38:22.392Z,59989.49
2019-01-19T05:40:48.525Z,59980.49
2019-01-19T05:43:14.642Z,59980.18
2019-01-19T05:45:40.777Z,59975.07
2019-01-19T05:48:06.894Z,59978.59
2019-01-19T05:50:33.022Z,59977.88
2019-01-19T05:52:59.155Z,59983.52
2019-01-19T05:55:25.272Z,59981.04
2019-01-19T05:57:51.408Z,59983.34
2019-01-19T06:00:58.943Z,59976.99
2019-01-19T06:03:25.166Z,59987.75
2019-01-19T06:08:25.532Z,59998.48
2019-01-19T06:10:51.674Z,59996.38
2019-01-19T06:13:17.913Z,59986.33
2019-01-19T06:15:44.144Z,59966.97
2019-01-19T06:18:10.354Z,59976.31
2019-01-19T06:20:36.482Z,59974.04
2019-01-19T06:23:02.699Z,59967.53
2019-01-19T06:25:28.936Z,59964.72
2019-01-19T06:27:55.050Z,59959.46
2019-01-19T06:31:02.592Z,59954.17
2019-01-19T06:33:28.724Z,59941.83
2019-01-19T06:35:54.950Z,59935.86
2019-01-19T06:38:21.063Z,59940.62
2019-01-19T06:40:47.263Z,59942.74
2019-01-19T06:43:13.440Z,59943.58
2019-01-19T06:45:39.685Z,59952.38
2019-01-19T06:50:53.503Z,59958.90
2019-01-19T06:53:19.623Z,59952.38
2019-01-19T06:55:45.755Z,59949.06
2019-01-19T06:58:11.872Z,59945.39
2019-01-19T07:00:37.986Z,59948.53
2019-01-19T07:03:04.118Z,59947.67
2019-01-19T07:05:30.237Z,59942.03
2019-01-19T07:07:56.368Z,59942.54
2019-01-19T07:11:03.914Z,59942.21
2019-01-19T07:13:30.039Z,59940.79
2019-01-19T07:15:56.257Z,59937.81
2019-01-19T07:18:22.384Z,59936.57
2019-01-19T07:20:48.513Z,59937.12
2019-01-19T07:23:14.636Z,59934.49
2019-01-19T07:25:40.856Z,59936.93
2019-01-19T07:28:06.982Z,59944.13
2019-01-19T07:30:33.198Z,59952.93
2019-01-19T07:32:59.379Z,59953.77
2019-01-19T07:35:25.498Z,59965.23
2019-01-19T07:37:51.720Z,59971.53
2019-01-19T07:40:17.947Z,59977.88
2019-01-19T07:43:25.487Z,59965.41
2019-01-19T07:45:51.707Z,59952.23
2019-01-19T07:48:17.938Z,59938.87
2019-01-19T07:50:44.057Z,59933.08
2019-01-19T07:53:10.195Z,59921.14
2019-01-19T07:55:36.309Z,59910.95
2019-01-19T07:58:02.438Z,59911.13
2019-01-19T08:00:48.423Z,59916.23
2019-01-19T08:03:14.556Z,59913.40
2019-01-19T08:05:40.671Z,59915.88
2019-01-19T08:08:06.811Z,59920.79
2019-01-19T08:10:33.027Z,59930.45
2019-01-19T08:12:59.156Z,59937.30
2019-01-19T08:16:06.678Z,59948.20
2019-01-19T08:18:32.812Z,59980.03
2019-01-19T08:20:58.930Z,59996.55
2019-01-19T08:23:26.213Z,59989.31
2019-01-19T08:25:53.379Z,59987.57
2019-01-19T08:31:13.071Z,59986.51
2019-01-19T08:33:39.314Z,59997.11
2019-01-19T08:38:53.144Z,60003.57
2019-01-19T08:41:19.257Z,60031.52
2019-01-19T08:46:23.126Z,60080.61
2019-01-19T08:48:49.242Z,60094.70
2019-01-19T08:51:15.459Z,60095.76
2019-01-19T08:53:41.615Z,60083.75
2019-01-19T08:56:07.832Z,60086.77
2019-01-19T08:58:34.047Z,60093.81
2019-01-19T09:01:00.271Z,60104.02
2019-01-19T09:03:26.393Z,60122.82
2019-01-19T09:05:52.622Z,60156.70
2019-01-19T09:08:18.838Z,60161.09
2019-01-19T09:10:45.067Z,60166.04
2019-01-19T09:13:11.196Z,60167.43
2019-01-19T09:15:37.444Z,60175.20
2019-01-19T09:18:03.566Z,60182.01
2019-01-19T09:20:29.683Z,60221.72
2019-01-19T09:25:37.352Z,60257.14
2019-01-19T09:28:03.469Z,60258.89
2019-01-19T09:30:29.600Z,60271.13
2019-01-19T09:32:55.819Z,60286.17
2019-01-19T09:35:22.055Z,60288.57
2019-01-19T09:37:48.275Z,60290.81
2019-01-19T09:40:36.051Z,60309.56
2019-01-19T09:43:02.174Z,60331.98
2019-01-19T09:45:28.303Z,60361.28
2019-01-19T09:47:54.524Z,60376.12
2019-01-19T09:51:02.070Z,60386.91
2019-01-19T09:53:28.205Z,60403.01
2019-01-19T09:55:54.346Z,60424.73
2019-01-19T09:58:20.462Z,60430.18
2019-01-19T10:00:46.599Z,60437.61
2019-01-19T10:03:13.949Z,60462.20
2019-01-19T10:05:40.850Z,60490.18
2019-01-19T10:08:07.091Z,60499.54
2019-01-19T10:10:33.330Z,60510.20
2019-01-19T10:12:59.445Z,60507.99
2019-01-19T10:15:25.562Z,60510.64
2019-01-19T10:17:51.799Z,60519.69
2019-01-19T10:20:59.331Z,60525.20
2019-01-19T10:23:25.455Z,60538.29
2019-01-19T10:25:51.689Z,60577.91
2019-01-19T10:28:17.806Z,60576.75
2019-01-19T10:30:44.022Z,60572.78
2019-01-19T10:33:10.155Z,60584.51
2019-01-19T10:35:36.388Z,60593.54
2019-01-19T10:38:02.614Z,60606.29
2019-01-19T10:40:28.727Z,60621.19
2019-01-19T10:42:54.953Z,60628.07
2019-01-19T10:48:34.484Z,60654.88
2019-01-19T10:51:00.697Z,60667.49
2019-01-19T10:53:26.832Z,60668.49
2019-01-19T10:55:53.249Z,60672.16
2019-01-19T10:58:21.202Z,60692.32
2019-01-19T11:00:47.319Z,60705.62
2019-01-19T11:03:13.447Z,60715.49
2019-01-19T11:05:39.666Z,60719.33
2019-01-19T11:10:40.177Z,60750.95
2019-01-19T11:13:06.427Z,60767.66
2019-01-19T11:15:32.541Z,60778.64
2019-01-19T11:17:58.685Z,60783.59
2019-01-19T11:23:39.929Z,60801.71
2019-01-19T11:26:06.973Z,60810.76
2019-01-19T11:28:33.110Z,60814.84
2019-01-19T11:30:59.230Z,60823.93
2019-01-19T11:33:25.362Z,60827.12
2019-01-19T11:35:51.570Z,60841.92
2019-01-19T11:38:20.265Z,60840.38
2019-01-19T11:40:45.842Z,60872.38
2019-01-19T11:43:11.985Z,60869.93
2019-01-19T11:45:38.135Z,60883.32
2019-01-19T11:48:04.367Z,60890.01
2019-01-19T11:50:30.489Z,60909.11
2019-01-19T11:52:56.624Z,60900.30
2019-01-19T11:55:22.935Z,60897.97
2019-01-19T11:58:30.503Z,60900.10
2019-01-19T12:00:56.723Z,60904.76
2019-01-19T12:03:22.855Z,60922.16
2019-01-19T12:05:49.088Z,60927.84
2019-01-19T12:08:19.448Z,60938.80
2019-01-19T12:10:43.462Z,60947.32
2019-01-19T12:13:09.578Z,60946.37
2019-01-19T12:15:35.710Z,60954.88
2019-01-19T12:18:01.829Z,60957.17
2019-01-19T12:20:47.719Z,60965.56
2019-01-19T12:23:13.854Z,60973.39
2019-01-19T12:25:40.091Z,60998.21
2019-01-19T12:28:06.307Z,61003.31
2019-01-19T12:31:13.850Z,61015.69
2019-01-19T12:33:40.002Z,61016.70
2019-01-19T12:36:06.238Z,61019.82
2019-01-19T12:38:32.459Z,61032.92
2019-01-19T12:40:58.695Z,61030.18
2019-01-19T12:43:24.812Z,61034.10
2019-01-19T12:46:32.372Z,61033.57
2019-01-19T12:48:58.504Z,61036.05
2019-01-19T12:51:24.641Z,61052.70
2019-01-19T12:53:50.865Z,61046.69
2019-01-19T12:56:17.101Z,61052.08
2019-01-19T12:58:43.220Z,61062.13
2019-01-19T13:01:09.447Z,61058.14
2019-01-19T13:03:57.216Z,61069.91
2019-01-19T13:07:04.773Z,61081.98
2019-01-19T13:09:31.051Z,61087.34
2019-01-19T13:12:38.597Z,61104.81
2019-01-19T13:15:44.366Z,61133.49
2019-01-19T13:21:51.056Z,61145.26
2019-01-19T13:27:39.991Z,61165.79
2019-01-19T13:30:47.538Z,61182.31
2019-01-19T13:33:35.328Z,61195.00
2019-01-19T13:39:41.425Z,61217.50
2019-01-19T13:58:05.287Z,61276.20
2019-01-19T14:21:40.988Z,61440.68
2019-01-19T14:24:46.776Z,61439.70
2019-01-19T14:27:52.516Z,61458.68
2019-01-19T14:31:00.085Z,61452.48
2019-01-19T14:46:04.705Z,61490.21
2019-01-19T14:49:10.455Z,61484.94
2019-01-19T14:52:16.192Z,61494.89
2019-01-19T14:55:21.932Z,61503.78
2019-01-19T15:16:46.189Z,61503.05
2019-01-19T15:19:33.987Z,61490.35
2019-01-19T15:22:40.431Z,61505.98
2019-01-19T15:25:48.006Z,61495.29
2019-01-19T15:34:54.718Z,61511.30
2019-01-19T15:41:01.039Z,61494.32
2019-01-19T15:44:06.790Z,61497.24
2019-01-19T15:47:12.541Z,61487.13
2019-01-19T15:50:18.279Z,61488.99
2019-01-19T15:56:37.941Z,61488.99
2019-01-19T16:02:44.583Z,61491.97
2019-01-19T16:05:52.159Z,61471.52
2019-01-19T16:08:57.887Z,61470.63
2019-01-19T16:12:05.432Z,61475.76
2019-01-19T16:18:12.134Z,61459.03
2019-01-19T16:21:17.872Z,61465.66
2019-01-19T16:24:25.455Z,61456.98
2019-01-19T16:33:32.400Z,61453.32
2019-01-19T16:36:39.961Z,61450.64
2019-01-19T16:39:45.713Z,61431.12
2019-01-19T16:42:53.283Z,61426.09
2019-01-19T16:45:41.107Z,61429.06
2019-01-19T16:51:47.980Z,61424.34
2019-01-19T17:00:38.017Z,61409.99
2019-01-19T17:03:45.577Z,61396.51
2019-01-19T17:06:51.311Z,61396.27
2019-01-19T17:09:58.856Z,61383.43
2019-01-19T17:19:19.222Z,61376.62
2019-01-19T17:22:26.767Z,61369.58
2019-01-19T17:25:32.520Z,61373.92
2019-01-19T17:31:38.676Z,61361.06
2019-01-19T17:34:44.411Z,61350.57
2019-01-19T17:37:50.164Z,61347.03
2019-01-19T17:40:55.943Z,61358.38
2019-01-19T17:47:02.200Z,61349.61
2019-01-19T17:53:08.494Z,61350.05
2019-01-19T17:56:14.271Z,61348.63
2019-01-19T18:05:34.074Z,61353.11
2019-01-19T18:11:40.426Z,61353.01
2019-01-19T18:14:47.975Z,61338.79
2019-01-19T18:21:07.127Z,61328.26
2019-01-19T18:24:12.867Z,61329.43
2019-01-19T18:27:20.423Z,61305.46
2019-01-19T18:30:26.151Z,61312.09
2019-01-19T18:33:33.704Z,61291.20
2019-01-19T18:36:39.467Z,61286.19
2019-01-19T18:42:59.349Z,61280.82
2019-01-19T18:49:05.778Z,61298.04
2019-01-19T18:51:53.593Z,61281.99
2019-01-19T18:55:01.116Z,61288.71
2019-01-19T19:06:51.443Z,61263.77
2019-01-19T19:10:02.058Z,61255.85
2019-01-19T19:13:04.836Z,61268.88
2019-01-19T19:16:12.381Z,61264.07
2019-01-19T19:19:18.152Z,61259.05
2019-01-19T19:22:23.885Z,61249.06
2019-01-19T19:25:29.629Z,61233.27
2019-01-19T19:28:35.358Z,61224.70
2019-01-19T19:31:41.099Z,61210.69
2019-01-19T19:34:46.859Z,61216.56
2019-01-19T19:37:52.595Z,61207.24
2019-01-19T19:40:58.332Z,61200.80
2019-01-19T19:44:04.073Z,61197.59
2019-01-19T19:47:11.627Z,61195.60
2019-01-19T19:50:17.360Z,61193.66
2019-01-19T19:52:43.600Z,61189.58
2019-01-19T19:55:09.412Z,61189.13
2019-01-19T19:57:35.646Z,61166.37
2019-01-19T20:03:09.223Z,61145.46
2019-01-19T20:05:35.444Z,61145.41
2019-01-19T20:08:01.593Z,61120.47
2019-01-19T20:10:27.710Z,61121.63
2019-01-19T20:12:53.849Z,61103.71
2019-01-19T20:15:19.969Z,61094.43
2019-01-19T20:17:46.209Z,61083.59
2019-01-19T20:23:26.278Z,61056.34
2019-01-19T20:25:52.410Z,61046.60
2019-01-19T20:28:18.648Z,61022.32
2019-01-19T20:30:44.774Z,61001.95
2019-01-19T20:33:10.907Z,60988.07
2019-01-19T20:35:37.128Z,60971.44
2019-01-19T20:38:03.359Z,60975.34
2019-01-19T20:40:29.580Z,60957.11
2019-01-19T20:42:55.723Z,60933.72
2019-01-19T20:45:21.938Z,60929.10
2019-01-19T20:47:48.070Z,60937.47
2019-01-19T20:50:14.192Z,60918.09
2019-01-19T20:52:40.423Z,60909.18
2019-01-19T20:58:19.912Z,60892.84
2019-01-19T21:00:46.123Z,60871.04
2019-01-19T21:03:12.263Z,60860.38
2019-01-19T21:05:38.386Z,60847.17
2019-01-19T21:08:04.527Z,60845.41
2019-01-19T21:10:31.919Z,60844.23
2019-01-19T21:12:58.787Z,60830.46
2019-01-19T21:15:24.909Z,60829.99
2019-01-19T21:17:55.783Z,60834.01
2019-01-19T21:20:19.173Z,60813.62
2019-01-19T21:22:45.399Z,60807.45
2019-01-19T21:25:52.947Z,60793.78
2019-01-19T21:28:19.081Z,60773.09
2019-01-19T21:30:45.204Z,60763.36
2019-01-19T21:33:11.443Z,60754.36
2019-01-19T21:35:37.566Z,60738.33
2019-01-19T21:38:03.783Z,60728.22
2019-01-19T21:40:30.126Z,60740.26
2019-01-19T21:42:56.339Z,60726.68
2019-01-19T21:45:22.578Z,60707.52
2019-01-19T21:47:48.695Z,60708.88
2019-01-19T21:50:15.124Z,60684.26
2019-01-19T21:52:41.240Z,60695.04
2019-01-19T21:55:48.779Z,60669.66
2019-01-19T21:58:14.908Z,60670.96
2019-01-19T22:00:41.040Z,60671.94
2019-01-19T22:03:07.172Z,60650.29
2019-01-19T22:05:33.300Z,60644.71
2019-01-19T22:07:59.426Z,60634.07
2019-01-19T22:10:25.655Z,60647.68
2019-01-19T22:12:51.772Z,60626.78
2019-01-19T22:15:59.326Z,60626.34
2019-01-19T22:18:25.555Z,60629.09
2019-01-19T22:20:51.687Z,60607.89
2019-01-19T22:23:17.815Z,60596.39
2019-01-19T22:25:44.047Z,60593.72
2019-01-19T22:28:10.266Z,60581.62
2019-01-19T22:30:36.411Z,60578.82
2019-01-19T22:33:02.736Z,60571.38
2019-01-19T22:35:28.967Z,60568.91
2019-01-19T22:37:55.083Z,60564.51
2019-01-19T22:40:21.220Z,60556.50
2019-01-19T22:42:47.460Z,60558.88
2019-01-19T22:45:55.000Z,60547.27
2019-01-19T22:48:21.223Z,60550.66
2019-01-19T22:50:47.358Z,60551.38
2019-01-19T22:53:13.471Z,60547.66
2019-01-19T22:55:39.601Z,60550.01
2019-01-19T22:58:05.720Z,60541.65
2019-01-19T23:01:11.464Z,60533.70
2019-01-19T23:03:37.675Z,60525.52
2019-01-19T23:06:03.838Z,60528.95
2019-01-19T23:08:29.973Z,60517.91
2019-01-19T23:11:01.108Z,60511.36
2019-01-19T23:13:24.232Z,60508.50
2019-01-19T23:15:50.367Z,60516.89
2019-01-19T23:18:16.484Z,60515.94
2019-01-19T23:20:42.616Z,60526.63
2019-01-19T23:23:08.734Z,60530.73
2019-01-19T23:25:34.847Z,60518.44
2019-01-19T23:28:01.093Z,60524.16
2019-01-19T23:30:27.309Z,60512.57
2019-01-19T23:32:53.436Z,60511.00
2019-01-19T23:35:19.549Z,60504.12
2019-01-19T23:37:45.683Z,60499.16
2019-01-19T23:40:53.237Z,60491.18
2019-01-19T23:43:19.483Z,60490.49
2019-01-19T23:45:45.601Z,60479.37
2019-01-19T23:48:11.733Z,60490.14
2019-01-19T23:50:37.846Z,60496.24
2019-01-19T23:53:04.078Z,60487.14
2019-01-19T23:55:30.191Z,60479.68
2019-01-19T23:57:56.422Z,60472.45
